Detalhes do Voo

Voltar

 DETALHES DO VÔO

Piloto: GLD769 Ricardo D. Aeronave: BOMBARDIER DASH 8-Q400_V2.1908 GOLD 5 ANOS Distância: 231NM
Origem: SBCT Destino: SBMG Duração: 0.84
Validação: Validado Tipo: Regular Matrícula: PR-GTT
ZFW: 23608 Block Fuel/Init FOB 999/0 Combustível em Voo 673
Passageiros: 63 Carga: 6984 Alternativo: SBCA
Hora da Decolagem: Velocidade de Cruzeiro: 252 Nível de Voo: FL200
Regra Visual: IFR ICAO da Aeronave: DASH8 Unidade de Peso: Kg
Data: 30/01/2020 Observação: Rede: VATSIM
Acidentou?: Não Comentários do Validador: Pontuação do Voo 98.3535

 ROTA

ROTA GEGOB UZ63 LON
REMARKS OPR/GOLD VIRTUAL AIRLINES PER/B FROM SBCT RMK/PIC GLD769 /WWW.GOLDVIRTUAL.COM.BR

 PENALIDADES DO VOO

Para entender como cada item é pontuado, consulte as regras de avaliação.

Nenhuma penalidade registrada para este voo.

 ANÁLISE DO POUSO

Vento durante o pouso: 97º/2 kt Proa durante o pouso: 168
V/S do Pouso: -590.55 ft/min IAS do Pouso: 105.2 kt
Força G no pouso: 1.8 G Bank no pouso: -2.5
Pitch no Pouso 4 Flaps no Pouso 35
Nav Lights ON Landing Lights ON
Beacon Lights OFF Strobe Lights ON

 MAPA DO VOO

 PERFIL VERTICAL DO VOO

 EVENTOS PRINCIPAIS DO VOO

DATAEVENTOIASALTITUDE
2020-01-30 01:06:21 SIM ACARS version 1.4.002995
2020-01-30 01:06:21 BOARDING02995
2020-01-30 01:15:55 STARTING ENGINE 2 02995
2020-01-30 01:16:39 STARTING ENGINE 1 02995
2020-01-30 01:26:47 FLAPS EXTENSION 25 % 02995
2020-01-30 01:51:05 TAXI TO THE RWY 72995
2020-01-30 01:52:13 FLAPS EXTENSION 0 % 22995
2020-01-30 01:55:18 BEACON LIGHT OFF & ENGINE ON32995
2020-01-30 01:56:52 ROLLING FOR TAKE OFF382995
2020-01-30 01:57:18 TAKE OFF1442997
2020-01-30 01:57:27 GEAR UP1553104
2020-01-30 02:00:35 LIGHTS ON ABOVE 10000 ft19510503
2020-01-30 02:06:38 CRUISE22220106
2020-01-30 02:35:58 DESCEND24119522
2020-01-30 02:44:44 FLAPS EXTENSION 25 % 1913855
2020-01-30 02:45:17 FLAPS EXTENSION 50 % 1643321
2020-01-30 02:45:18 FLAPS EXTENSION 75 % 1643318
2020-01-30 02:45:40 GEAR DOWN1263173
2020-01-30 02:45:48 FLAPS EXTENSION 100 % 1233144
2020-01-30 02:46:28 CRUISE1183268
2020-01-30 02:47:08 DESCEND1423048
2020-01-30 02:48:36 LANDING1051798
2020-01-30 02:49:14 TAXI TO THE GATE201797
2020-01-30 02:55:07 FLAPS EXTENSION 75 % 01797
2020-01-30 02:55:10 FLAPS EXTENSION 50 % 01797
2020-01-30 02:55:11 FLAPS EXTENSION 25 % 01797
2020-01-30 02:55:12 FLAPS EXTENSION 0 % 01797
2020-01-30 02:55:16 STOPPING ENGINE 2 01797
2020-01-30 02:55:17 STOPPING ENGINE 1 01797

 DADOS DO ACARS

DATA IAS GS ALTITUDE COMBUSTÍVEL USADO OAT FASE DO VOO
2020-01-30 01:07:21 0 0 2994 1 19 BOARDING
2020-01-30 01:08:21 0 0 2994 1 19 BOARDING
2020-01-30 01:09:21 0 0 2994 1 19 BOARDING
2020-01-30 01:10:21 0 0 2994 1 19 BOARDING
2020-01-30 01:11:21 0 0 2994 1 19 BOARDING
2020-01-30 01:12:21 0 0 2994 1 19 BOARDING
2020-01-30 01:13:21 0 0 2994 1 19 BOARDING
2020-01-30 01:14:21 0 0 2994 1 19 BOARDING
2020-01-30 01:15:21 0 0 2994 1 19 BOARDING
2020-01-30 01:16:21 0 0 2994 2 19 BOARDING
2020-01-30 01:17:21 0 0 2994 8 19 BOARDING
2020-01-30 01:18:21 0 0 2994 14 19 BOARDING
2020-01-30 01:19:21 0 0 2994 21 19 BOARDING
2020-01-30 01:20:21 0 0 2994 28 19 BOARDING
2020-01-30 01:21:21 0 0 2994 34 19 BOARDING
2020-01-30 01:22:21 0 0 2994 38 19 BOARDING
2020-01-30 01:23:21 0 0 2994 45 19 BOARDING
2020-01-30 01:24:21 0 2 2994 52 19 BOARDING
2020-01-30 01:25:21 0 1 2994 58 19 BOARDING
2020-01-30 01:26:21 0 0 2994 65 19 BOARDING
2020-01-30 01:27:21 0 0 2994 71 19 BOARDING
2020-01-30 01:28:21 0 0 2994 78 19 BOARDING
2020-01-30 01:29:21 0 0 2994 85 19 BOARDING
2020-01-30 01:30:21 0 0 2994 91 19 BOARDING
2020-01-30 01:31:21 0 0 2994 98 19 BOARDING
2020-01-30 01:32:21 0 0 2994 104 19 BOARDING
2020-01-30 01:33:21 0 0 2994 111 19 BOARDING
2020-01-30 01:34:21 0 0 2994 118 19 BOARDING
2020-01-30 01:35:21 0 0 2994 124 19 BOARDING
2020-01-30 01:36:21 0 0 2994 131 19 BOARDING
2020-01-30 01:37:21 0 0 2994 137 19 BOARDING
2020-01-30 01:38:21 0 0 2994 144 19 BOARDING
2020-01-30 01:39:21 0 0 2994 151 19 BOARDING
2020-01-30 01:40:21 0 0 2994 157 19 BOARDING
2020-01-30 01:41:21 0 0 2994 164 19 BOARDING
2020-01-30 01:42:21 0 0 2994 171 19 BOARDING
2020-01-30 01:43:21 0 0 2994 177 19 BOARDING
2020-01-30 01:44:21 0 0 2994 184 19 BOARDING
2020-01-30 01:45:21 0 0 2994 190 19 BOARDING
2020-01-30 01:46:21 0 0 2994 197 19 BOARDING
2020-01-30 01:47:21 1 3 2994 204 19 BOARDING
2020-01-30 01:48:21 1 3 2994 210 19 BOARDING
2020-01-30 01:49:21 5 7 2994 217 19 BOARDING
2020-01-30 01:50:21 0 2 2994 224 19 BOARDING
2020-01-30 01:51:21 5 8 2994 231 19 TAXI TO THE RWY
2020-01-30 01:52:21 4 6 2994 237 19 TAXI TO THE RWY
2020-01-30 01:53:21 2 0 2994 244 19 TAXI TO THE RWY
2020-01-30 01:54:21 2 0 2994 251 19 TAXI TO THE RWY
2020-01-30 01:55:21 2 0 2994 257 19 TAXI TO THE RWY
2020-01-30 01:56:21 1 0 2994 264 19 TAXI TO THE RWY
2020-01-30 01:57:21 149 161 3013 283 19 CLIMBING
2020-01-30 01:58:21 155 169 5105 311 14 CLIMBING
2020-01-30 01:59:21 190 215 7080 339 10 CLIMBING
2020-01-30 02:00:21 196 225 9773 367 4 CLIMBING
2020-01-30 02:01:21 185 219 12753 394 -2 CLIMBING
2020-01-30 02:02:21 158 195 15418 420 -8 CLIMBING
2020-01-30 02:03:21 168 210 16571 443 -10 CLIMBING
2020-01-30 02:04:21 182 222 17985 465 -14 CLIMBING
2020-01-30 02:05:21 201 249 19080 487 -16 CLIMBING
2020-01-30 02:06:21 214 269 20086 508 -18 CLIMBING
2020-01-30 02:07:21 241 305 20120 519 -18 CRUISE
2020-01-30 02:08:21 260 330 20120 521 -17 CRUISE
2020-01-30 02:09:21 267 340 20123 535 -17 CRUISE
2020-01-30 02:10:21 261 332 20120 549 -17 CRUISE
2020-01-30 02:11:21 259 330 20127 563 -17 CRUISE
2020-01-30 02:12:21 259 329 20126 576 -17 CRUISE
2020-01-30 02:13:21 258 330 20131 590 -17 CRUISE
2020-01-30 02:14:21 257 331 20122 599 -17 CRUISE
2020-01-30 02:15:21 258 331 20113 611 -17 CRUISE
2020-01-30 02:16:21 259 331 20101 624 -17 CRUISE
2020-01-30 02:17:21 260 331 20084 638 -18 CRUISE
2020-01-30 02:18:21 260 331 20058 651 -18 CRUISE
2020-01-30 02:19:21 260 331 20046 665 -18 CRUISE
2020-01-30 02:20:21 259 330 20045 679 -18 CRUISE
2020-01-30 02:21:21 259 330 20044 693 -18 CRUISE
2020-01-30 02:22:21 259 329 20043 706 -18 CRUISE
2020-01-30 02:23:21 258 327 20043 720 -17 CRUISE
2020-01-30 02:24:21 258 327 20042 733 -17 CRUISE
2020-01-30 02:25:21 256 326 20039 747 -17 CRUISE
2020-01-30 02:26:21 257 327 20041 760 -17 CRUISE
2020-01-30 02:27:21 256 327 20046 771 -17 CRUISE
2020-01-30 02:28:21 256 327 20049 773 -17 CRUISE
2020-01-30 02:29:21 257 328 20049 784 -17 CRUISE
2020-01-30 02:30:21 258 329 20048 797 -17 CRUISE
2020-01-30 02:31:21 258 330 20048 810 -17 CRUISE
2020-01-30 02:32:21 258 330 20044 824 -17 CRUISE
2020-01-30 02:33:21 258 331 20030 837 -17 CRUISE
2020-01-30 02:34:21 259 331 20017 851 -17 CRUISE
2020-01-30 02:35:21 258 330 20002 864 -17 CRUISE
2020-01-30 02:36:21 231 293 19113 869 -15 DESCEND
2020-01-30 02:37:21 235 293 17246 873 -10 DESCEND
2020-01-30 02:38:21 243 297 14975 878 -5 DESCEND
2020-01-30 02:39:21 244 293 12664 882 0 DESCEND
2020-01-30 02:40:21 247 291 10513 887 4 DESCEND
2020-01-30 02:41:21 236 273 8739 892 8 DESCEND
2020-01-30 02:42:21 217 247 7279 897 11 DESCEND
2020-01-30 02:43:21 198 224 5954 903 14 DESCEND
2020-01-30 02:44:21 175 198 4757 909 16 DESCEND
2020-01-30 02:45:21 159 175 3284 915 19 DESCEND
2020-01-30 02:46:21 114 128 3268 927 20 DESCEND
2020-01-30 02:47:21 139 154 2765 946 21 DESCEND
2020-01-30 02:48:21 115 126 1946 953 24 DESCEND
2020-01-30 02:49:21 12 11 1796 961 24 TAXI TO THE GATE
2020-01-30 02:50:21 17 14 1796 967 24 TAXI TO THE GATE
2020-01-30 02:51:21 19 18 1797 974 24 TAXI TO THE GATE
2020-01-30 02:52:21 8 6 1797 981 24 TAXI TO THE GATE
2020-01-30 02:53:21 0 0 1796 988 24 TAXI TO THE GATE
2020-01-30 02:54:21 0 0 1796 995 24 TAXI TO THE GATE
2020-01-30 02:55:21 0 0 1796 1000 24 TAXI TO THE GATE